createdAt,value
2022-11-02T00:01:57.937Z,98745.31
2022-11-02T00:04:28.512Z,98747.05
2022-11-02T00:06:59.366Z,98742.91
2022-11-02T00:09:29.790Z,98746.55
2022-11-02T00:12:00.216Z,98748.27
2022-11-02T00:14:30.577Z,98749.81
2022-11-02T00:17:01.118Z,98745.34
2022-11-02T00:19:32.015Z,98751.20
2022-11-02T00:22:02.972Z,98751.03
2022-11-02T00:24:34.941Z,98752.08
2022-11-02T00:27:05.453Z,98745.69
2022-11-02T00:29:36.699Z,98740.69
2022-11-02T00:32:07.705Z,98739.66
2022-11-02T00:34:38.175Z,98732.59
2022-11-02T00:37:08.994Z,98732.41
2022-11-02T00:39:39.771Z,98734.14
2022-11-02T00:42:10.296Z,98736.56
2022-11-02T00:44:41.116Z,98729.48
2022-11-02T00:53:37.442Z,98737.57
2022-11-02T00:56:09.493Z,98739.29
2022-11-02T00:58:39.994Z,98735.84
2022-11-02T01:01:11.651Z,98730.80
2022-11-02T01:03:42.153Z,98729.41
2022-11-02T01:06:15.096Z,98734.58
2022-11-02T01:08:44.027Z,98738.53
2022-11-02T01:11:16.680Z,98739.23
2022-11-02T01:13:48.428Z,98733.20
2022-11-02T01:16:21.534Z,98734.56
2022-11-02T01:18:55.421Z,98728.86
2022-11-02T01:21:26.310Z,98732.64
2022-11-02T01:23:57.691Z,98732.27
2022-11-02T01:26:28.188Z,98727.06
2022-11-02T01:28:58.673Z,98721.69
2022-11-02T01:31:29.160Z,98722.21
2022-11-02T01:33:59.681Z,98728.08
2022-11-02T01:36:30.231Z,98726.48
2022-11-02T01:39:00.698Z,98720.08
2022-11-02T01:41:31.455Z,98723.84
2022-11-02T01:44:05.398Z,98720.36
2022-11-02T01:46:40.906Z,98723.83
2022-11-02T01:49:14.416Z,98717.08
2022-11-02T01:51:47.889Z,98712.05
2022-11-02T01:54:20.037Z,98707.72
2022-11-02T01:56:53.711Z,98705.97
2022-11-02T01:59:35.704Z,98703.02
2022-11-02T02:02:10.349Z,98703.54
2022-11-02T02:04:41.028Z,98705.09
2022-11-02T02:07:11.933Z,98700.77
2022-11-02T02:09:47.163Z,98698.70
2022-11-02T02:12:21.225Z,98694.02
2022-11-02T02:14:52.990Z,98689.14
2022-11-02T02:17:32.991Z,98684.45
2022-11-02T02:20:07.258Z,98679.46
2022-11-02T02:23:19.872Z,98681.20
2022-11-02T02:26:18.819Z,98677.79
2022-11-02T02:28:52.300Z,98682.63
2022-11-02T02:31:27.169Z,98685.44
2022-11-02T02:34:02.154Z,98683.06
2022-11-02T02:36:35.585Z,98684.33
2022-11-02T02:39:10.479Z,98687.48
2022-11-02T02:41:42.140Z,98681.83
2022-11-02T02:44:14.478Z,98682.02
2022-11-02T02:46:49.061Z,98678.73
2022-11-02T02:49:23.505Z,98669.74
2022-11-02T02:51:54.201Z,98667.33
2022-11-02T02:54:27.077Z,98680.09
2022-11-02T02:57:01.308Z,98682.67
2022-11-02T02:59:35.164Z,98683.01
2022-11-02T03:02:09.826Z,98684.88
2022-11-02T03:04:40.504Z,98681.40
2022-11-02T03:07:15.952Z,98676.20
2022-11-02T03:09:49.187Z,98680.33
2022-11-02T03:12:29.131Z,98681.34
2022-11-02T03:15:10.375Z,98679.23
2022-11-02T03:17:50.839Z,98679.70
2022-11-02T03:20:26.662Z,98681.73
2022-11-02T03:23:06.574Z,98679.81
2022-11-02T03:25:41.925Z,98680.13
2022-11-02T03:28:17.591Z,98686.84
2022-11-02T03:30:50.947Z,98682.69
2022-11-02T03:33:25.238Z,98673.86
2022-11-02T03:35:59.751Z,98669.00
2022-11-02T03:38:35.966Z,98675.39
2022-11-02T03:41:07.368Z,98683.50
2022-11-02T03:43:39.387Z,98698.36
2022-11-02T03:46:11.067Z,98695.77
2022-11-02T03:48:44.009Z,98693.33
2022-11-02T03:51:17.019Z,98686.20
2022-11-02T03:53:50.848Z,98688.57
2022-11-02T03:56:26.263Z,98690.23
2022-11-02T03:58:57.163Z,98694.85
2022-11-02T04:01:29.740Z,98695.48
2022-11-02T04:04:00.812Z,98700.64
2022-11-02T04:06:31.297Z,98705.96
2022-11-02T04:09:03.867Z,98706.09
2022-11-02T04:11:52.320Z,98708.30
2022-11-02T04:14:41.420Z,98716.38
2022-11-02T04:17:35.515Z,98723.78
2022-11-02T04:20:10.584Z,98722.23
2022-11-02T04:22:58.542Z,98716.87
2022-11-02T04:25:29.275Z,98720.85
2022-11-02T04:28:18.161Z,98715.85
2022-11-02T04:30:58.664Z,98717.94
2022-11-02T04:33:36.507Z,98718.14
2022-11-02T04:36:14.945Z,98715.09
2022-11-02T04:38:45.893Z,98709.45
2022-11-02T04:41:45.847Z,98709.34
2022-11-02T04:44:35.078Z,98719.94
2022-11-02T04:47:12.041Z,98727.44
2022-11-02T04:49:42.547Z,98726.13
2022-11-02T04:52:15.535Z,98727.74
2022-11-02T04:54:51.024Z,98729.57
2022-11-02T04:57:21.856Z,98738.27
2022-11-02T04:59:56.171Z,98742.30
2022-11-02T05:02:26.824Z,98744.61
2022-11-02T05:04:58.290Z,98751.90
2022-11-02T05:07:29.633Z,98750.23
2022-11-02T05:10:00.164Z,98751.45
2022-11-02T05:12:31.337Z,98753.03
2022-11-02T05:15:03.325Z,98752.36
2022-11-02T05:17:33.897Z,98751.54
2022-11-02T05:20:05.913Z,98751.89
2022-11-02T05:22:36.469Z,98756.74
2022-11-02T05:25:07.882Z,98762.61
2022-11-02T05:27:40.086Z,98764.00
2022-11-02T05:30:13.633Z,98767.11
2022-11-02T05:32:44.389Z,98767.80
2022-11-02T05:35:15.000Z,98771.77
2022-11-02T05:37:46.704Z,98767.63
2022-11-02T05:40:17.213Z,98764.52
2022-11-02T05:42:47.823Z,98759.70
2022-11-02T05:45:22.087Z,98764.19
2022-11-02T05:47:54.175Z,98767.77
2022-11-02T05:50:24.635Z,98774.80
2022-11-02T05:52:56.728Z,98771.02
2022-11-02T05:55:27.305Z,98772.21
2022-11-02T05:57:58.326Z,98772.55
2022-11-02T06:00:29.219Z,98773.59
2022-11-02T06:02:59.988Z,98774.29
2022-11-02T06:05:30.835Z,98775.33
2022-11-02T06:08:02.621Z,98782.55
2022-11-02T06:10:33.226Z,98783.81
2022-11-02T06:13:05.171Z,98778.29
2022-11-02T06:15:36.015Z,98779.34
2022-11-02T06:18:07.840Z,98781.23
2022-11-02T06:20:38.372Z,98784.34
2022-11-02T06:23:09.178Z,98786.39
2022-11-02T06:25:40.040Z,98788.65
2022-11-02T06:28:10.445Z,98796.39
2022-11-02T06:30:41.650Z,98794.16
2022-11-02T06:33:12.405Z,98796.56
2022-11-02T06:35:44.074Z,98798.45
2022-11-02T06:38:14.861Z,98801.55
2022-11-02T06:40:45.692Z,98807.73
2022-11-02T06:43:17.424Z,98809.30
2022-11-02T06:45:48.385Z,98812.55
2022-11-02T06:48:18.783Z,98817.54
2022-11-02T06:50:49.172Z,98824.43
2022-11-02T06:53:19.710Z,98830.09
2022-11-02T06:55:55.120Z,98832.84
2022-11-02T06:58:26.064Z,98833.69
2022-11-02T07:01:01.780Z,98838.83
2022-11-02T07:03:33.127Z,98841.46
2022-11-02T07:06:03.758Z,98843.30
2022-11-02T07:08:34.146Z,98842.30
2022-11-02T07:11:04.984Z,98845.56
2022-11-02T07:13:35.421Z,98852.79
2022-11-02T07:16:06.140Z,98855.67
2022-11-02T07:18:36.675Z,98857.11
2022-11-02T07:21:10.496Z,98857.47
2022-11-02T07:23:41.163Z,98858.19
2022-11-02T07:26:11.774Z,98866.89
2022-11-02T07:28:42.275Z,98870.38
2022-11-02T07:31:12.626Z,98873.94
2022-11-02T07:33:43.271Z,98872.81
2022-11-02T07:36:13.956Z,98871.61
2022-11-02T07:38:44.788Z,98872.02
2022-11-02T07:41:15.256Z,98871.39
2022-11-02T07:43:45.918Z,98874.70
2022-11-02T07:46:28.585Z,98877.88
2022-11-02T07:48:59.141Z,98879.13
2022-11-02T07:51:30.868Z,98887.63
2022-11-02T07:54:02.649Z,98888.48
2022-11-02T07:56:33.193Z,98894.28
2022-11-02T07:59:03.766Z,98892.40
2022-11-02T08:01:34.257Z,98898.77
2022-11-02T08:04:04.925Z,98897.88
2022-11-02T08:06:37.000Z,98901.66
2022-11-02T08:09:10.512Z,98905.30
2022-11-02T08:11:41.167Z,98901.95
2022-11-02T08:14:16.061Z,98904.93
2022-11-02T08:16:48.144Z,98914.48
2022-11-02T08:19:18.935Z,98917.83
2022-11-02T08:21:50.131Z,98917.17
2022-11-02T08:24:20.811Z,98919.32
2022-11-02T08:26:53.953Z,98921.27
2022-11-02T08:29:25.574Z,98922.30
2022-11-02T08:31:56.381Z,98929.70
2022-11-02T08:34:26.939Z,98933.50
2022-11-02T08:36:58.231Z,98936.96
2022-11-02T08:39:28.802Z,98934.38
2022-11-02T08:41:59.285Z,98940.75
2022-11-02T08:44:29.899Z,98938.33
2022-11-02T08:47:02.150Z,98936.52
2022-11-02T08:49:34.687Z,98933.41
2022-11-02T08:52:05.429Z,98926.91
2022-11-02T08:54:36.020Z,98928.61
2022-11-02T08:57:06.621Z,98929.02
2022-11-02T08:59:42.176Z,98927.25
2022-11-02T09:02:12.989Z,98926.01
2022-11-02T09:04:43.992Z,98928.13
2022-11-02T09:07:14.589Z,98928.42
2022-11-02T09:09:45.462Z,98930.64
2022-11-02T09:12:17.661Z,98933.63
2022-11-02T09:14:50.820Z,98934.73
2022-11-02T09:17:21.431Z,98930.34
2022-11-02T09:19:52.135Z,98929.40
2022-11-02T09:22:22.715Z,98932.45
2022-11-02T09:24:53.967Z,98926.89
2022-11-02T09:27:25.352Z,98927.70
2022-11-02T09:29:55.939Z,98929.07
2022-11-02T09:32:26.539Z,98927.15
2022-11-02T09:34:56.927Z,98923.71
2022-11-02T09:37:32.096Z,98930.20
2022-11-02T09:40:05.559Z,98932.37
2022-11-02T09:42:51.849Z,98929.36
2022-11-02T09:45:23.320Z,98930.86
2022-11-02T09:50:51.565Z,98932.61
2022-11-02T09:53:28.749Z,98935.34
2022-11-02T09:56:03.839Z,98933.88
2022-11-02T09:58:40.508Z,98941.89
2022-11-02T10:01:24.822Z,98943.36
2022-11-02T10:04:08.763Z,98938.63
2022-11-02T10:06:43.658Z,98941.02
2022-11-02T10:09:19.867Z,98938.70
2022-11-02T10:11:59.611Z,98949.05
2022-11-02T10:14:34.804Z,98947.09
2022-11-02T10:17:12.867Z,98947.87
2022-11-02T10:19:48.421Z,98950.24
2022-11-02T10:22:21.037Z,98944.95
2022-11-02T10:24:54.640Z,98951.55
2022-11-02T10:27:30.945Z,98953.56
2022-11-02T10:30:05.865Z,98959.80
2022-11-02T10:32:40.946Z,98969.55
2022-11-02T10:35:37.016Z,98976.96
2022-11-02T10:38:22.805Z,98976.90
2022-11-02T10:40:58.540Z,98978.02
2022-11-02T10:43:52.366Z,98973.92
2022-11-02T10:46:39.810Z,98963.06
2022-11-02T10:49:20.444Z,98963.33
2022-11-02T10:51:53.156Z,98964.38
2022-11-02T11:01:07.445Z,98958.80
2022-11-02T11:03:56.743Z,98949.30
2022-11-02T11:06:32.354Z,98961.29
2022-11-02T11:09:16.112Z,98963.33
2022-11-02T11:11:55.539Z,98962.48
2022-11-02T11:20:30.813Z,98967.09
2022-11-02T11:23:19.927Z,98973.84
2022-11-02T11:26:02.223Z,98966.07
2022-11-02T11:28:35.731Z,98969.05
2022-11-02T11:31:14.369Z,98962.23
2022-11-02T11:33:48.239Z,98969.67
2022-11-02T11:36:26.978Z,98968.64
2022-11-02T11:39:00.353Z,98965.23
2022-11-02T11:41:31.549Z,98970.92
2022-11-02T11:44:02.991Z,98974.27
2022-11-02T11:46:43.932Z,98973.98
2022-11-02T11:49:36.042Z,98975.69
2022-11-02T11:52:20.170Z,98975.52
2022-11-02T11:54:59.548Z,98969.82
2022-11-02T11:57:32.448Z,98968.27
2022-11-02T12:00:06.740Z,98967.75
2022-11-02T12:02:44.271Z,98967.85
2022-11-02T12:05:17.626Z,98967.14
2022-11-02T12:08:02.403Z,98968.65
2022-11-02T12:10:44.151Z,98959.30
2022-11-02T12:13:27.335Z,98958.73
2022-11-02T12:16:08.596Z,98949.15
2022-11-02T12:18:51.316Z,98948.70
2022-11-02T12:21:35.234Z,98942.27
2022-11-02T12:24:23.415Z,98939.45
2022-11-02T12:27:03.183Z,98938.20
2022-11-02T12:29:57.481Z,98940.39
2022-11-02T12:32:42.106Z,98944.90
2022-11-02T12:35:38.130Z,98944.39
2022-11-02T12:38:29.651Z,98948.45
2022-11-02T12:41:05.174Z,98948.89
2022-11-02T12:43:43.250Z,98952.41
2022-11-02T12:46:34.036Z,98959.34
2022-11-02T12:49:25.978Z,98965.04
2022-11-02T12:52:01.686Z,98955.92
2022-11-02T12:54:41.733Z,98951.40
2022-11-02T12:57:17.001Z,98949.52
2022-11-02T12:59:49.498Z,98942.46
2022-11-02T13:02:22.527Z,98941.36
2022-11-02T13:04:55.828Z,98934.02
2022-11-02T13:07:30.683Z,98940.98
2022-11-02T13:10:06.549Z,98938.34
2022-11-02T13:12:39.644Z,98935.27
2022-11-02T13:15:16.773Z,98933.46
2022-11-02T13:17:50.291Z,98933.91
2022-11-02T13:20:23.298Z,98931.39
2022-11-02T13:22:57.083Z,98926.42
2022-11-02T13:25:31.418Z,98928.38
2022-11-02T13:28:06.116Z,98925.15
2022-11-02T13:30:37.288Z,98915.64
2022-11-02T13:33:15.415Z,98917.20
2022-11-02T13:35:46.280Z,98916.04
2022-11-02T13:38:28.561Z,98912.34
2022-11-02T13:41:09.172Z,98910.05
2022-11-02T13:44:12.436Z,98906.17
2022-11-02T13:46:59.080Z,98905.88
2022-11-02T13:49:32.701Z,98900.45
2022-11-02T13:52:07.447Z,98895.70
2022-11-02T13:54:43.408Z,98893.81
2022-11-02T13:57:30.021Z,98896.46
2022-11-02T14:00:00.908Z,98904.58
2022-11-02T14:02:35.005Z,98906.77
2022-11-02T14:05:05.828Z,98904.35
2022-11-02T14:07:40.226Z,98912.02
2022-11-02T14:10:17.324Z,98914.52
2022-11-02T14:12:48.682Z,98911.16
2022-11-02T14:15:54.533Z,98915.05
2022-11-02T14:18:34.659Z,98918.80
2022-11-02T14:21:35.699Z,98919.55
2022-11-02T14:24:46.219Z,98916.74
2022-11-02T14:27:31.190Z,98918.63
2022-11-02T14:30:01.938Z,98920.91
2022-11-02T14:32:57.424Z,98919.23
2022-11-02T14:35:38.885Z,98917.38
2022-11-02T14:38:29.384Z,98916.58
2022-11-02T14:41:05.417Z,98915.58
2022-11-02T14:44:15.946Z,98913.77
2022-11-02T14:46:57.824Z,98914.59
2022-11-02T14:49:32.373Z,98913.15
2022-11-02T14:52:05.803Z,98911.00
2022-11-02T14:54:40.571Z,98914.73
2022-11-02T14:57:21.650Z,98913.95
2022-11-02T14:59:53.586Z,98912.63
2022-11-02T15:02:28.402Z,98914.27
2022-11-02T15:05:02.894Z,98916.43
2022-11-02T15:07:36.982Z,98915.16
2022-11-02T15:10:30.530Z,98914.45
2022-11-02T15:13:31.747Z,98918.30
2022-11-02T15:16:41.555Z,98910.63
2022-11-02T15:19:40.118Z,98911.13
2022-11-02T15:22:35.863Z,98911.09
2022-11-02T15:25:10.923Z,98904.13
2022-11-02T15:27:43.469Z,98908.44
2022-11-02T15:30:17.981Z,98902.52
2022-11-02T15:32:51.125Z,98904.92
2022-11-02T15:35:23.978Z,98906.84
2022-11-02T15:38:15.963Z,98910.11
2022-11-02T15:40:50.168Z,98913.98
2022-11-02T15:43:35.298Z,98915.05
2022-11-02T15:46:10.685Z,98916.21
2022-11-02T15:48:47.476Z,98913.90
2022-11-02T15:51:22.625Z,98914.19
2022-11-02T15:54:07.274Z,98911.05
2022-11-02T15:56:53.053Z,98912.07
2022-11-02T15:59:37.732Z,98907.36
2022-11-02T16:02:22.296Z,98913.09
2022-11-02T16:04:54.688Z,98909.58
2022-11-02T16:07:33.524Z,98907.42
2022-11-02T16:10:22.791Z,98904.63
2022-11-02T16:13:00.278Z,98898.50
2022-11-02T16:15:31.523Z,98895.96
2022-11-02T16:18:02.141Z,98887.23
2022-11-02T16:20:35.899Z,98882.46
2022-11-02T16:29:10.570Z,98889.25
2022-11-02T16:31:41.527Z,98889.88
2022-11-02T16:34:19.868Z,98893.75
2022-11-02T16:36:50.814Z,98894.49
2022-11-02T16:39:23.875Z,98891.06
2022-11-02T16:41:57.332Z,98891.44
2022-11-02T16:44:30.430Z,98889.23
2022-11-02T16:47:15.139Z,98884.37
2022-11-02T16:52:47.706Z,98882.50
2022-11-02T16:58:35.560Z,98890.69
2022-11-02T17:01:07.587Z,98890.56
2022-11-02T17:03:38.286Z,98886.77
2022-11-02T17:06:09.392Z,98883.34
2022-11-02T17:08:41.183Z,98877.47
2022-11-02T17:11:16.160Z,98877.14
2022-11-02T17:13:50.117Z,98878.54
2022-11-02T17:16:20.827Z,98880.11
2022-11-02T17:18:51.355Z,98879.79
2022-11-02T17:21:32.062Z,98885.36
2022-11-02T17:24:03.103Z,98889.38
2022-11-02T17:26:40.317Z,98890.42
2022-11-02T17:29:33.399Z,98889.56
2022-11-02T17:32:05.346Z,98887.68
2022-11-02T17:34:36.146Z,98894.25
2022-11-02T17:37:08.781Z,98893.04
2022-11-02T17:39:39.283Z,98893.59
2022-11-02T17:42:31.840Z,98893.77
2022-11-02T17:45:24.300Z,98891.19
2022-11-02T17:47:55.294Z,98886.89
2022-11-02T17:50:27.024Z,98888.48
2022-11-02T17:52:58.086Z,98888.83
2022-11-02T17:55:29.671Z,98892.45
2022-11-02T17:58:00.886Z,98889.16
2022-11-02T18:00:31.583Z,98885.20
2022-11-02T18:03:02.629Z,98885.04
2022-11-02T18:05:36.837Z,98882.45
2022-11-02T18:08:10.245Z,98879.18
2022-11-02T18:10:42.483Z,98876.10
2022-11-02T18:13:14.350Z,98881.27
2022-11-02T18:15:45.058Z,98885.05
2022-11-02T18:18:15.603Z,98885.59
2022-11-02T18:20:46.192Z,98881.11
2022-11-02T18:23:19.806Z,98871.62
2022-11-02T18:25:52.813Z,98868.17
2022-11-02T18:28:25.945Z,98865.59
2022-11-02T18:30:56.433Z,98869.21
2022-11-02T18:33:26.849Z,98877.16
2022-11-02T18:36:04.493Z,98882.35
2022-11-02T18:38:35.037Z,98875.27
2022-11-02T18:41:22.716Z,98869.94
2022-11-02T18:43:53.224Z,98868.40
2022-11-02T18:46:26.617Z,98869.27
2022-11-02T18:49:00.445Z,98867.70
2022-11-02T18:51:31.250Z,98865.30
2022-11-02T18:54:02.974Z,98866.34
2022-11-02T18:56:33.492Z,98871.86
2022-11-02T18:59:04.229Z,98874.11
2022-11-02T19:01:34.846Z,98865.83
2022-11-02T19:04:05.579Z,98869.27
2022-11-02T19:06:53.871Z,98863.95
2022-11-02T19:09:26.972Z,98859.13
2022-11-02T19:12:02.250Z,98861.20
2022-11-02T19:14:34.527Z,98860.16
2022-11-02T19:17:05.745Z,98857.06
2022-11-02T19:19:36.390Z,98847.91
2022-11-02T19:22:06.782Z,98838.42
2022-11-02T19:24:37.262Z,98842.58
2022-11-02T19:27:44.500Z,98837.40
2022-11-02T19:30:11.297Z,98838.61
2022-11-02T19:32:41.766Z,98838.44
2022-11-02T19:35:12.413Z,98841.88
2022-11-02T19:37:42.869Z,98834.31
2022-11-02T19:40:14.622Z,98824.83
2022-11-02T19:42:47.314Z,98825.52
2022-11-02T19:45:17.917Z,98825.86
2022-11-02T19:47:51.081Z,98823.96
2022-11-02T19:50:21.545Z,98822.75
2022-11-02T19:52:52.213Z,98819.14
2022-11-02T19:55:28.536Z,98820.69
2022-11-02T19:58:01.991Z,98825.33
2022-11-02T20:00:32.772Z,98828.61
2022-11-02T20:03:05.120Z,98829.31
2022-11-02T20:05:35.656Z,98832.23
2022-11-02T20:08:06.450Z,98832.58
2022-11-02T20:10:37.328Z,98825.01
2022-11-02T20:13:07.932Z,98821.90
2022-11-02T20:15:40.559Z,98827.07
2022-11-02T20:18:19.573Z,98821.39
2022-11-02T20:20:52.398Z,98823.27
2022-11-02T20:23:23.043Z,98820.70
2022-11-02T20:25:53.434Z,98820.02
2022-11-02T20:28:23.860Z,98823.27
2022-11-02T20:30:54.359Z,98818.45
2022-11-02T20:33:25.122Z,98820.86
2022-11-02T20:35:55.746Z,98822.41
2022-11-02T20:38:26.552Z,98820.86
2022-11-02T20:40:57.792Z,98818.11
2022-11-02T20:43:28.163Z,98815.02
2022-11-02T20:46:35.834Z,98813.63
2022-11-02T20:48:55.442Z,98806.91
2022-11-02T20:51:26.306Z,98805.01
2022-11-02T20:53:56.762Z,98801.58
2022-11-02T20:56:27.250Z,98800.87
2022-11-02T20:58:57.983Z,98798.29
2022-11-02T21:01:28.422Z,98800.88
2022-11-02T21:03:59.046Z,98797.95
2022-11-02T21:06:29.570Z,98797.62
2022-11-02T21:09:00.523Z,98794.16
2022-11-02T21:11:48.715Z,98791.73
2022-11-02T21:14:19.270Z,98790.02
2022-11-02T21:16:50.070Z,98790.89
2022-11-02T21:19:20.537Z,98791.23
2022-11-02T21:21:55.030Z,98784.85
2022-11-02T21:24:28.798Z,98779.34
2022-11-02T21:26:59.288Z,98782.97
2022-11-02T21:29:29.730Z,98786.40
2022-11-02T21:32:00.621Z,98785.55
2022-11-02T21:34:31.052Z,98781.92
2022-11-02T21:37:03.059Z,98778.30
2022-11-02T21:39:33.572Z,98777.11
2022-11-02T21:42:04.567Z,98773.32
2022-11-02T21:44:35.109Z,98769.86
2022-11-02T21:47:05.542Z,98768.30
2022-11-02T21:49:36.035Z,98769.48
2022-11-02T21:52:06.879Z,98767.41
2022-11-02T21:54:37.514Z,98767.92
2022-11-02T21:57:08.044Z,98767.77
2022-11-02T21:59:38.567Z,98767.76
2022-11-02T22:02:09.405Z,98767.59
2022-11-02T22:04:40.057Z,98768.28
2022-11-02T22:07:10.446Z,98764.14
2022-11-02T22:09:41.127Z,98760.00
2022-11-02T22:12:28.946Z,98754.64
2022-11-02T22:14:59.573Z,98747.55
2022-11-02T22:17:49.236Z,98745.13
2022-11-02T22:20:20.414Z,98738.04
2022-11-02T22:22:50.778Z,98738.88
2022-11-02T22:25:21.290Z,98743.00
2022-11-02T22:27:52.421Z,98740.23
2022-11-02T22:30:24.453Z,98732.81
2022-11-02T22:32:54.855Z,98730.39
2022-11-02T22:35:25.387Z,98721.93
2022-11-02T22:38:13.138Z,98715.20
2022-11-02T22:40:43.914Z,98713.77
2022-11-02T22:43:14.434Z,98718.59
2022-11-02T22:45:44.984Z,98716.48
2022-11-02T22:48:15.559Z,98712.49
2022-11-02T22:50:47.642Z,98705.75
2022-11-02T22:53:18.104Z,98698.32
2022-11-02T22:55:53.528Z,98699.35
2022-11-02T22:58:25.166Z,98702.63
2022-11-02T23:00:56.812Z,98707.66
2022-11-02T23:03:27.634Z,98706.48
2022-11-02T23:05:58.219Z,98704.79
2022-11-02T23:08:29.508Z,98708.63
2022-11-02T23:11:18.308Z,98703.14
2022-11-02T23:13:50.044Z,98695.06
2022-11-02T23:16:22.443Z,98692.34
2022-11-02T23:19:12.543Z,98686.48
2022-11-02T23:21:45.124Z,98685.45
2022-11-02T23:24:33.411Z,98682.52
2022-11-02T23:27:04.935Z,98678.02
2022-11-02T23:29:52.742Z,98681.29
2022-11-02T23:32:28.852Z,98680.27
2022-11-02T23:35:17.761Z,98676.84
2022-11-02T23:37:48.763Z,98680.45
2022-11-02T23:40:19.975Z,98688.21
2022-11-02T23:42:50.418Z,98687.36
2022-11-02T23:45:20.802Z,98680.80
2022-11-02T23:48:01.344Z,98679.25
2022-11-02T23:50:50.961Z,98675.81
2022-11-02T23:53:41.120Z,98675.63
2022-11-02T23:56:34.154Z,98676.30
2022-11-02T23:59:07.506Z,98669.04
